Terminal Aerodrome Forecast
Issued by NWS

Home | Current Version | Previous Version | Text Only | Print | Product List | Glossary On
Versions: 1 2 3 4 5 6 7 8 9 10 11 12 13 14 15 16 17 18
000
FTUS41 KPHI 312324
TAFMIV
TAF
KMIV 312324Z 0100/0124 VRB03KT P6SM FEW050 BKN150
      TEMPO 0103/0106 4SM -SHRA BR BKN025 OVC040
     FM010600 VRB03KT 6SM BR VCSH BKN025
      TEMPO 0108/0112 3SM SHRA BR OVC020
     FM011200 32005KT P6SM VCSH OVC020
     FM011500 36005KT P6SM BKN035
     FM011900 36007KT P6SM SCT050 BKN150
     FM012300 02005KT P6SM SCT250=

USA.gov is the U.S. government's official web portal to all federal, state and local government web resources and services.